sensor_id;sensor_type;location;lat;lon;timestamp;P1;durP1;ratioP1;P2;durP2;ratioP2
66739;SDS011;53653;52.188;8.602;2024-02-26T00:02:22;9.00;;;3.83;;
66739;SDS011;53653;52.188;8.602;2024-02-26T00:04:48;10.35;;;4.60;;
66739;SDS011;53653;52.188;8.602;2024-02-26T00:07:15;8.77;;;4.03;;
66739;SDS011;53653;52.188;8.602;2024-02-26T00:09:41;9.27;;;4.27;;
66739;SDS011;53653;52.188;8.602;2024-02-26T00:12:06;8.55;;;4.25;;
66739;SDS011;53653;52.188;8.602;2024-02-26T00:14:32;11.37;;;5.13;;
66739;SDS011;53653;52.188;8.602;2024-02-26T00:16:57;10.30;;;4.93;;
66739;SDS011;53653;52.188;8.602;2024-02-26T00:19:23;10.00;;;4.57;;
66739;SDS011;53653;52.188;8.602;2024-02-26T00:21:48;9.30;;;4.57;;
66739;SDS011;53653;52.188;8.602;2024-02-26T00:24:13;10.33;;;5.17;;
66739;SDS011;53653;52.188;8.602;2024-02-26T00:26:39;8.70;;;4.03;;
66739;SDS011;53653;52.188;8.602;2024-02-26T00:29:04;6.93;;;3.08;;
66739;SDS011;53653;52.188;8.602;2024-02-26T00:31:30;10.33;;;4.30;;
66739;SDS011;53653;52.188;8.602;2024-02-26T00:33:56;10.07;;;4.13;;
66739;SDS011;53653;52.188;8.602;2024-02-26T00:36:21;8.68;;;4.18;;
66739;SDS011;53653;52.188;8.602;2024-02-26T00:38:46;10.70;;;4.63;;
66739;SDS011;53653;52.188;8.602;2024-02-26T00:41:16;10.57;;;4.35;;
66739;SDS011;53653;52.188;8.602;2024-02-26T00:43:42;9.97;;;4.00;;
66739;SDS011;53653;52.188;8.602;2024-02-26T00:46:07;7.95;;;3.45;;
66739;SDS011;53653;52.188;8.602;2024-02-26T00:48:33;11.77;;;4.93;;
66739;SDS011;53653;52.188;8.602;2024-02-26T00:50:59;10.63;;;4.72;;
66739;SDS011;53653;52.188;8.602;2024-02-26T00:53:24;11.17;;;4.53;;
66739;SDS011;53653;52.188;8.602;2024-02-26T00:55:50;10.00;;;4.95;;
66739;SDS011;53653;52.188;8.602;2024-02-26T00:58:16;9.90;;;4.00;;
66739;SDS011;53653;52.188;8.602;2024-02-26T01:00:41;12.60;;;4.65;;
66739;SDS011;53653;52.188;8.602;2024-02-26T01:03:07;7.60;;;2.83;;
66739;SDS011;53653;52.188;8.602;2024-02-26T01:05:32;8.27;;;4.00;;
66739;SDS011;53653;52.188;8.602;2024-02-26T01:07:58;11.13;;;4.55;;
66739;SDS011;53653;52.188;8.602;2024-02-26T01:10:24;9.37;;;4.07;;
66739;SDS011;53653;52.188;8.602;2024-02-26T01:12:49;11.60;;;4.33;;
66739;SDS011;53653;52.188;8.602;2024-02-26T01:15:15;10.97;;;4.50;;
66739;SDS011;53653;52.188;8.602;2024-02-26T01:17:41;8.50;;;3.78;;
66739;SDS011;53653;52.188;8.602;2024-02-26T01:20:06;8.77;;;4.10;;
66739;SDS011;53653;52.188;8.602;2024-02-26T01:22:34;9.10;;;3.55;;
66739;SDS011;53653;52.188;8.602;2024-02-26T01:24:59;10.03;;;4.30;;
66739;SDS011;53653;52.188;8.602;2024-02-26T01:27:25;9.60;;;3.77;;
66739;SDS011;53653;52.188;8.602;2024-02-26T01:29:52;9.63;;;4.25;;
66739;SDS011;53653;52.188;8.602;2024-02-26T01:32:17;7.40;;;3.42;;
66739;SDS011;53653;52.188;8.602;2024-02-26T01:34:43;7.50;;;3.70;;
66739;SDS011;53653;52.188;8.602;2024-02-26T01:37:08;8.70;;;3.80;;
66739;SDS011;53653;52.188;8.602;2024-02-26T01:39:34;8.20;;;3.87;;
66739;SDS011;53653;52.188;8.602;2024-02-26T01:42:01;9.98;;;3.83;;
66739;SDS011;53653;52.188;8.602;2024-02-26T01:44:26;8.33;;;4.00;;
66739;SDS011;53653;52.188;8.602;2024-02-26T01:46:52;8.93;;;3.20;;
66739;SDS011;53653;52.188;8.602;2024-02-26T01:49:18;8.52;;;3.15;;
66739;SDS011;53653;52.188;8.602;2024-02-26T01:51:44;6.20;;;2.60;;
66739;SDS011;53653;52.188;8.602;2024-02-26T01:54:10;11.00;;;3.40;;
66739;SDS011;53653;52.188;8.602;2024-02-26T01:56:37;6.78;;;2.85;;
66739;SDS011;53653;52.188;8.602;2024-02-26T01:59:04;7.78;;;2.97;;
66739;SDS011;53653;52.188;8.602;2024-02-26T02:01:31;8.93;;;3.70;;
66739;SDS011;53653;52.188;8.602;2024-02-26T02:03:58;7.63;;;3.37;;
66739;SDS011;53653;52.188;8.602;2024-02-26T02:06:24;8.27;;;3.63;;
66739;SDS011;53653;52.188;8.602;2024-02-26T02:08:52;8.48;;;3.42;;
66739;SDS011;53653;52.188;8.602;2024-02-26T02:11:17;8.65;;;4.07;;
66739;SDS011;53653;52.188;8.602;2024-02-26T02:13:43;8.63;;;3.67;;
66739;SDS011;53653;52.188;8.602;2024-02-26T02:16:08;8.20;;;3.80;;
66739;SDS011;53653;52.188;8.602;2024-02-26T02:18:34;7.57;;;3.50;;
66739;SDS011;53653;52.188;8.602;2024-02-26T02:21:00;8.10;;;3.63;;
66739;SDS011;53653;52.188;8.602;2024-02-26T02:23:25;7.13;;;3.10;;
66739;SDS011;53653;52.188;8.602;2024-02-26T02:25:51;7.93;;;3.87;;
66739;SDS011;53653;52.188;8.602;2024-02-26T02:28:17;8.75;;;3.78;;
66739;SDS011;53653;52.188;8.602;2024-02-26T02:30:43;9.15;;;3.85;;
66739;SDS011;53653;52.188;8.602;2024-02-26T02:33:09;9.57;;;4.10;;
66739;SDS011;53653;52.188;8.602;2024-02-26T02:35:36;8.50;;;3.22;;
66739;SDS011;53653;52.188;8.602;2024-02-26T02:38:02;6.77;;;3.70;;
66739;SDS011;53653;52.188;8.602;2024-02-26T02:40:28;7.10;;;2.80;;
66739;SDS011;53653;52.188;8.602;2024-02-26T02:42:53;7.60;;;3.47;;
66739;SDS011;53653;52.188;8.602;2024-02-26T02:45:19;9.03;;;4.40;;
66739;SDS011;53653;52.188;8.602;2024-02-26T02:47:44;9.83;;;4.10;;
66739;SDS011;53653;52.188;8.602;2024-02-26T02:50:10;9.10;;;4.30;;
66739;SDS011;53653;52.188;8.602;2024-02-26T02:52:35;8.70;;;3.93;;
66739;SDS011;53653;52.188;8.602;2024-02-26T02:55:01;7.68;;;3.38;;
66739;SDS011;53653;52.188;8.602;2024-02-26T02:57:27;8.97;;;3.43;;
66739;SDS011;53653;52.188;8.602;2024-02-26T02:59:53;7.18;;;3.10;;
66739;SDS011;53653;52.188;8.602;2024-02-26T03:02:19;6.27;;;2.73;;
66739;SDS011;53653;52.188;8.602;2024-02-26T03:04:44;7.40;;;3.30;;
66739;SDS011;53653;52.188;8.602;2024-02-26T03:07:09;8.13;;;4.10;;
66739;SDS011;53653;52.188;8.602;2024-02-26T03:09:35;7.93;;;3.27;;
66739;SDS011;53653;52.188;8.602;2024-02-26T03:12:00;10.33;;;4.03;;
66739;SDS011;53653;52.188;8.602;2024-02-26T03:14:26;7.00;;;2.80;;
66739;SDS011;53653;52.188;8.602;2024-02-26T03:16:54;9.10;;;3.70;;
66739;SDS011;53653;52.188;8.602;2024-02-26T03:19:20;6.15;;;2.53;;
66739;SDS011;53653;52.188;8.602;2024-02-26T03:21:46;6.90;;;3.33;;
66739;SDS011;53653;52.188;8.602;2024-02-26T03:24:11;7.83;;;3.40;;
66739;SDS011;53653;52.188;8.602;2024-02-26T03:26:37;10.27;;;3.67;;
66739;SDS011;53653;52.188;8.602;2024-02-26T03:29:03;7.85;;;3.08;;
66739;SDS011;53653;52.188;8.602;2024-02-26T03:31:28;9.13;;;3.53;;
66739;SDS011;53653;52.188;8.602;2024-02-26T03:33:56;6.60;;;3.17;;
66739;SDS011;53653;52.188;8.602;2024-02-26T03:36:22;7.28;;;3.13;;
66739;SDS011;53653;52.188;8.602;2024-02-26T03:38:48;7.23;;;2.83;;
66739;SDS011;53653;52.188;8.602;2024-02-26T03:41:13;7.50;;;2.73;;
66739;SDS011;53653;52.188;8.602;2024-02-26T03:43:39;6.32;;;2.40;;
66739;SDS011;53653;52.188;8.602;2024-02-26T03:46:08;5.57;;;2.70;;
66739;SDS011;53653;52.188;8.602;2024-02-26T03:48:34;6.85;;;2.97;;
66739;SDS011;53653;52.188;8.602;2024-02-26T03:51:00;7.38;;;2.88;;
66739;SDS011;53653;52.188;8.602;2024-02-26T03:53:26;5.77;;;2.30;;
66739;SDS011;53653;52.188;8.602;2024-02-26T03:55:51;6.10;;;2.73;;
66739;SDS011;53653;52.188;8.602;2024-02-26T03:58:17;8.30;;;3.40;;
66739;SDS011;53653;52.188;8.602;2024-02-26T04:00:43;6.80;;;2.83;;
66739;SDS011;53653;52.188;8.602;2024-02-26T04:03:09;9.70;;;3.30;;
66739;SDS011;53653;52.188;8.602;2024-02-26T04:05:35;7.57;;;3.33;;
66739;SDS011;53653;52.188;8.602;2024-02-26T04:08:00;7.10;;;2.70;;
66739;SDS011;53653;52.188;8.602;2024-02-26T04:10:26;7.75;;;2.40;;
66739;SDS011;53653;52.188;8.602;2024-02-26T04:12:51;6.30;;;2.47;;
66739;SDS011;53653;52.188;8.602;2024-02-26T04:15:17;6.23;;;2.63;;
66739;SDS011;53653;52.188;8.602;2024-02-26T04:17:42;5.10;;;2.20;;
66739;SDS011;53653;52.188;8.602;2024-02-26T04:20:15;6.30;;;2.75;;
66739;SDS011;53653;52.188;8.602;2024-02-26T04:22:41;5.40;;;1.90;;
66739;SDS011;53653;52.188;8.602;2024-02-26T04:25:06;5.30;;;1.97;;
66739;SDS011;53653;52.188;8.602;2024-02-26T04:27:32;4.82;;;2.08;;
66739;SDS011;53653;52.188;8.602;2024-02-26T04:29:57;5.60;;;2.40;;
66739;SDS011;53653;52.188;8.602;2024-02-26T04:32:23;7.57;;;3.20;;
66739;SDS011;53653;52.188;8.602;2024-02-26T04:34:48;7.10;;;2.80;;
66739;SDS011;53653;52.188;8.602;2024-02-26T04:37:14;5.60;;;2.20;;
66739;SDS011;53653;52.188;8.602;2024-02-26T04:39:42;5.90;;;2.50;;
66739;SDS011;53653;52.188;8.602;2024-02-26T04:42:08;6.70;;;2.92;;
66739;SDS011;53653;52.188;8.602;2024-02-26T04:44:33;7.30;;;2.70;;
66739;SDS011;53653;52.188;8.602;2024-02-26T04:46:58;7.20;;;2.70;;
66739;SDS011;53653;52.188;8.602;2024-02-26T04:49:27;6.80;;;2.67;;
66739;SDS011;53653;52.188;8.602;2024-02-26T04:51:52;6.65;;;3.05;;
66739;SDS011;53653;52.188;8.602;2024-02-26T04:54:19;7.45;;;2.70;;
66739;SDS011;53653;52.188;8.602;2024-02-26T04:56:44;6.67;;;3.03;;
66739;SDS011;53653;52.188;8.602;2024-02-26T04:59:10;6.45;;;2.70;;
66739;SDS011;53653;52.188;8.602;2024-02-26T05:01:35;6.97;;;2.20;;
66739;SDS011;53653;52.188;8.602;2024-02-26T05:04:01;7.57;;;2.45;;
66739;SDS011;53653;52.188;8.602;2024-02-26T05:06:28;6.70;;;2.58;;
66739;SDS011;53653;52.188;8.602;2024-02-26T05:08:54;7.30;;;2.90;;
66739;SDS011;53653;52.188;8.602;2024-02-26T05:11:19;8.65;;;3.47;;
66739;SDS011;53653;52.188;8.602;2024-02-26T05:13:45;7.77;;;3.30;;
66739;SDS011;53653;52.188;8.602;2024-02-26T05:16:10;7.63;;;3.70;;
66739;SDS011;53653;52.188;8.602;2024-02-26T05:18:36;5.97;;;2.50;;
66739;SDS011;53653;52.188;8.602;2024-02-26T05:21:01;7.97;;;4.00;;
66739;SDS011;53653;52.188;8.602;2024-02-26T05:23:28;9.10;;;3.85;;
66739;SDS011;53653;52.188;8.602;2024-02-26T05:25:54;8.07;;;3.43;;
66739;SDS011;53653;52.188;8.602;2024-02-26T05:28:19;9.18;;;3.70;;
66739;SDS011;53653;52.188;8.602;2024-02-26T05:30:45;9.37;;;4.17;;
66739;SDS011;53653;52.188;8.602;2024-02-26T05:33:11;9.65;;;4.32;;
66739;SDS011;53653;52.188;8.602;2024-02-26T05:35:37;8.53;;;3.50;;
66739;SDS011;53653;52.188;8.602;2024-02-26T05:38:03;9.82;;;4.10;;
66739;SDS011;53653;52.188;8.602;2024-02-26T05:40:28;10.25;;;4.20;;
66739;SDS011;53653;52.188;8.602;2024-02-26T05:42:55;10.77;;;4.72;;
66739;SDS011;53653;52.188;8.602;2024-02-26T05:45:21;9.50;;;4.10;;
66739;SDS011;53653;52.188;8.602;2024-02-26T05:47:47;10.50;;;4.85;;
66739;SDS011;53653;52.188;8.602;2024-02-26T05:50:15;12.05;;;4.72;;
66739;SDS011;53653;52.188;8.602;2024-02-26T05:52:41;23.50;;;5.23;;
66739;SDS011;53653;52.188;8.602;2024-02-26T05:55:06;9.18;;;4.82;;
66739;SDS011;53653;52.188;8.602;2024-02-26T05:57:33;10.47;;;4.83;;
66739;SDS011;53653;52.188;8.602;2024-02-26T05:59:59;10.68;;;3.95;;
66739;SDS011;53653;52.188;8.602;2024-02-26T06:02:38;9.27;;;4.40;;
66739;SDS011;53653;52.188;8.602;2024-02-26T06:05:03;9.15;;;3.80;;
66739;SDS011;53653;52.188;8.602;2024-02-26T06:07:29;9.70;;;4.63;;
66739;SDS011;53653;52.188;8.602;2024-02-26T06:09:54;9.37;;;3.93;;
66739;SDS011;53653;52.188;8.602;2024-02-26T06:12:20;11.97;;;5.80;;
66739;SDS011;53653;52.188;8.602;2024-02-26T06:14:45;9.97;;;4.47;;
66739;SDS011;53653;52.188;8.602;2024-02-26T06:17:11;13.10;;;5.60;;
66739;SDS011;53653;52.188;8.602;2024-02-26T06:19:36;9.88;;;5.07;;
66739;SDS011;53653;52.188;8.602;2024-02-26T06:22:02;12.33;;;5.13;;
66739;SDS011;53653;52.188;8.602;2024-02-26T06:24:27;10.77;;;4.53;;
66739;SDS011;53653;52.188;8.602;2024-02-26T06:26:53;12.88;;;5.13;;
66739;SDS011;53653;52.188;8.602;2024-02-26T06:29:18;9.47;;;4.50;;
66739;SDS011;53653;52.188;8.602;2024-02-26T06:31:44;8.57;;;3.77;;
66739;SDS011;53653;52.188;8.602;2024-02-26T06:34:10;9.13;;;4.65;;
66739;SDS011;53653;52.188;8.602;2024-02-26T06:36:36;15.93;;;5.75;;
66739;SDS011;53653;52.188;8.602;2024-02-26T06:39:02;11.30;;;4.87;;
66739;SDS011;53653;52.188;8.602;2024-02-26T06:41:27;14.17;;;4.60;;
66739;SDS011;53653;52.188;8.602;2024-02-26T06:43:55;10.00;;;4.95;;
66739;SDS011;53653;52.188;8.602;2024-02-26T06:46:20;14.13;;;6.78;;
66739;SDS011;53653;52.188;8.602;2024-02-26T06:48:47;10.63;;;5.50;;
66739;SDS011;53653;52.188;8.602;2024-02-26T06:51:13;11.18;;;5.10;;
66739;SDS011;53653;52.188;8.602;2024-02-26T06:53:39;12.07;;;5.50;;
66739;SDS011;53653;52.188;8.602;2024-02-26T06:56:04;11.77;;;5.10;;
66739;SDS011;53653;52.188;8.602;2024-02-26T06:58:30;12.30;;;5.55;;
66739;SDS011;53653;52.188;8.602;2024-02-26T07:00:55;12.50;;;6.40;;
66739;SDS011;53653;52.188;8.602;2024-02-26T07:03:21;12.13;;;5.17;;
66739;SDS011;53653;52.188;8.602;2024-02-26T07:05:50;10.75;;;5.45;;
66739;SDS011;53653;52.188;8.602;2024-02-26T07:08:16;13.52;;;5.10;;
66739;SDS011;53653;52.188;8.602;2024-02-26T07:10:41;9.47;;;4.43;;
66739;SDS011;53653;52.188;8.602;2024-02-26T07:13:06;10.57;;;4.83;;
66739;SDS011;53653;52.188;8.602;2024-02-26T07:15:32;7.33;;;3.50;;
66739;SDS011;53653;52.188;8.602;2024-02-26T07:17:58;8.40;;;4.00;;
66739;SDS011;53653;52.188;8.602;2024-02-26T07:20:28;12.45;;;4.85;;
66739;SDS011;53653;52.188;8.602;2024-02-26T07:22:56;10.35;;;3.95;;
66739;SDS011;53653;52.188;8.602;2024-02-26T07:25:22;9.30;;;4.50;;
66739;SDS011;53653;52.188;8.602;2024-02-26T07:27:48;9.80;;;4.47;;
66739;SDS011;53653;52.188;8.602;2024-02-26T07:30:13;8.67;;;3.90;;
66739;SDS011;53653;52.188;8.602;2024-02-26T07:32:39;10.35;;;4.55;;
66739;SDS011;53653;52.188;8.602;2024-02-26T07:35:05;14.47;;;4.13;;
66739;SDS011;53653;52.188;8.602;2024-02-26T07:37:30;9.45;;;3.55;;
66739;SDS011;53653;52.188;8.602;2024-02-26T07:39:56;10.57;;;4.53;;
66739;SDS011;53653;52.188;8.602;2024-02-26T07:42:21;10.60;;;4.50;;
66739;SDS011;53653;52.188;8.602;2024-02-26T07:44:47;16.73;;;5.43;;
66739;SDS011;53653;52.188;8.602;2024-02-26T07:47:12;14.90;;;4.97;;
66739;SDS011;53653;52.188;8.602;2024-02-26T07:49:38;11.43;;;4.73;;
66739;SDS011;53653;52.188;8.602;2024-02-26T07:52:05;15.57;;;6.30;;
66739;SDS011;53653;52.188;8.602;2024-02-26T07:54:30;11.10;;;5.23;;
66739;SDS011;53653;52.188;8.602;2024-02-26T07:56:56;13.90;;;5.35;;
66739;SDS011;53653;52.188;8.602;2024-02-26T07:59:21;9.13;;;4.27;;
66739;SDS011;53653;52.188;8.602;2024-02-26T08:01:50;9.77;;;3.97;;
66739;SDS011;53653;52.188;8.602;2024-02-26T08:04:16;10.90;;;5.32;;
66739;SDS011;53653;52.188;8.602;2024-02-26T08:06:42;10.88;;;4.25;;
66739;SDS011;53653;52.188;8.602;2024-02-26T08:09:08;8.40;;;3.70;;
66739;SDS011;53653;52.188;8.602;2024-02-26T08:11:34;10.77;;;4.93;;
66739;SDS011;53653;52.188;8.602;2024-02-26T08:13:59;9.80;;;4.40;;
66739;SDS011;53653;52.188;8.602;2024-02-26T08:16:25;10.05;;;4.35;;
66739;SDS011;53653;52.188;8.602;2024-02-26T08:18:50;9.57;;;4.73;;
66739;SDS011;53653;52.188;8.602;2024-02-26T08:21:16;6.77;;;3.07;;
66739;SDS011;53653;52.188;8.602;2024-02-26T08:23:42;10.47;;;4.83;;
66739;SDS011;53653;52.188;8.602;2024-02-26T08:26:08;9.50;;;4.38;;
66739;SDS011;53653;52.188;8.602;2024-02-26T08:28:36;12.25;;;5.30;;
66739;SDS011;53653;52.188;8.602;2024-02-26T08:31:02;9.82;;;5.00;;
66739;SDS011;53653;52.188;8.602;2024-02-26T08:33:28;12.02;;;5.70;;
66739;SDS011;53653;52.188;8.602;2024-02-26T08:35:53;11.33;;;4.90;;
66739;SDS011;53653;52.188;8.602;2024-02-26T08:38:19;11.05;;;4.30;;
66739;SDS011;53653;52.188;8.602;2024-02-26T08:40:45;10.47;;;3.87;;
66739;SDS011;53653;52.188;8.602;2024-02-26T08:43:10;17.00;;;4.70;;
66739;SDS011;53653;52.188;8.602;2024-02-26T08:45:36;10.00;;;4.28;;
66739;SDS011;53653;52.188;8.602;2024-02-26T08:48:02;10.63;;;4.43;;
66739;SDS011;53653;52.188;8.602;2024-02-26T08:50:27;11.23;;;4.20;;
66739;SDS011;53653;52.188;8.602;2024-02-26T08:52:53;9.43;;;4.20;;
66739;SDS011;53653;52.188;8.602;2024-02-26T08:55:18;9.00;;;4.90;;
66739;SDS011;53653;52.188;8.602;2024-02-26T08:57:44;9.55;;;3.42;;
66739;SDS011;53653;52.188;8.602;2024-02-26T09:00:10;11.20;;;5.10;;
66739;SDS011;53653;52.188;8.602;2024-02-26T09:02:36;8.65;;;4.18;;
66739;SDS011;53653;52.188;8.602;2024-02-26T09:05:04;9.00;;;3.53;;
66739;SDS011;53653;52.188;8.602;2024-02-26T09:07:30;9.35;;;4.25;;
66739;SDS011;53653;52.188;8.602;2024-02-26T09:09:56;9.53;;;3.77;;
66739;SDS011;53653;52.188;8.602;2024-02-26T09:12:22;8.85;;;3.63;;
66739;SDS011;53653;52.188;8.602;2024-02-26T09:14:47;6.83;;;3.03;;
66739;SDS011;53653;52.188;8.602;2024-02-26T09:17:13;10.13;;;4.70;;
66739;SDS011;53653;52.188;8.602;2024-02-26T09:19:38;9.85;;;4.25;;
66739;SDS011;53653;52.188;8.602;2024-02-26T09:22:04;7.70;;;3.03;;
66739;SDS011;53653;52.188;8.602;2024-02-26T09:24:29;9.73;;;4.30;;
66739;SDS011;53653;52.188;8.602;2024-02-26T09:26:55;9.33;;;4.30;;
66739;SDS011;53653;52.188;8.602;2024-02-26T09:29:20;10.85;;;4.60;;
66739;SDS011;53653;52.188;8.602;2024-02-26T09:31:46;8.90;;;3.90;;
66739;SDS011;53653;52.188;8.602;2024-02-26T09:34:12;10.77;;;4.15;;
66739;SDS011;53653;52.188;8.602;2024-02-26T09:36:38;10.82;;;4.97;;
66739;SDS011;53653;52.188;8.602;2024-02-26T09:39:04;13.20;;;5.57;;
66739;SDS011;53653;52.188;8.602;2024-02-26T09:41:30;13.80;;;4.93;;
66739;SDS011;53653;52.188;8.602;2024-02-26T09:43:57;11.90;;;4.78;;
66739;SDS011;53653;52.188;8.602;2024-02-26T09:46:27;9.98;;;4.45;;
66739;SDS011;53653;52.188;8.602;2024-02-26T09:48:53;9.40;;;4.07;;
66739;SDS011;53653;52.188;8.602;2024-02-26T09:51:20;8.63;;;4.57;;
66739;SDS011;53653;52.188;8.602;2024-02-26T09:53:49;9.15;;;3.97;;
66739;SDS011;53653;52.188;8.602;2024-02-26T09:56:16;10.88;;;5.15;;
66739;SDS011;53653;52.188;8.602;2024-02-26T09:58:42;11.30;;;4.60;;
66739;SDS011;53653;52.188;8.602;2024-02-26T10:01:11;8.90;;;3.58;;
66739;SDS011;53653;52.188;8.602;2024-02-26T10:03:41;9.05;;;3.78;;
66739;SDS011;53653;52.188;8.602;2024-02-26T10:06:09;12.75;;;3.58;;
66739;SDS011;53653;52.188;8.602;2024-02-26T10:08:35;9.40;;;3.53;;
66739;SDS011;53653;52.188;8.602;2024-02-26T10:11:02;7.28;;;2.97;;
66739;SDS011;53653;52.188;8.602;2024-02-26T10:13:28;9.15;;;3.97;;
66739;SDS011;53653;52.188;8.602;2024-02-26T10:15:53;7.73;;;3.97;;
66739;SDS011;53653;52.188;8.602;2024-02-26T10:18:19;7.90;;;3.27;;
66739;SDS011;53653;52.188;8.602;2024-02-26T10:21:00;8.20;;;3.75;;
66739;SDS011;53653;52.188;8.602;2024-02-26T10:23:29;9.13;;;4.57;;
66739;SDS011;53653;52.188;8.602;2024-02-26T10:25:55;7.93;;;3.40;;
66739;SDS011;53653;52.188;8.602;2024-02-26T10:28:20;10.57;;;4.20;;
66739;SDS011;53653;52.188;8.602;2024-02-26T10:30:46;8.90;;;3.72;;
66739;SDS011;53653;52.188;8.602;2024-02-26T10:33:12;8.50;;;2.93;;
66739;SDS011;53653;52.188;8.602;2024-02-26T10:35:39;7.72;;;3.58;;
66739;SDS011;53653;52.188;8.602;2024-02-26T10:38:08;11.57;;;4.72;;
66739;SDS011;53653;52.188;8.602;2024-02-26T10:40:34;8.10;;;3.57;;
66739;SDS011;53653;52.188;8.602;2024-02-26T10:42:59;9.57;;;4.18;;
66739;SDS011;53653;52.188;8.602;2024-02-26T10:45:25;8.60;;;4.03;;
66739;SDS011;53653;52.188;8.602;2024-02-26T10:47:51;8.40;;;4.17;;
66739;SDS011;53653;52.188;8.602;2024-02-26T10:50:17;7.50;;;3.80;;
66739;SDS011;53653;52.188;8.602;2024-02-26T10:52:43;16.58;;;5.47;;
66739;SDS011;53653;52.188;8.602;2024-02-26T10:55:08;10.13;;;4.00;;
66739;SDS011;53653;52.188;8.602;2024-02-26T10:57:52;8.38;;;3.20;;
66739;SDS011;53653;52.188;8.602;2024-02-26T11:00:18;10.25;;;4.18;;
66739;SDS011;53653;52.188;8.602;2024-02-26T11:02:44;7.50;;;3.40;;
66739;SDS011;53653;52.188;8.602;2024-02-26T11:05:11;16.25;;;4.05;;
66739;SDS011;53653;52.188;8.602;2024-02-26T11:07:37;11.10;;;3.45;;
66739;SDS011;53653;52.188;8.602;2024-02-26T11:10:04;8.30;;;4.10;;
66739;SDS011;53653;52.188;8.602;2024-02-26T11:12:31;7.60;;;3.20;;
66739;SDS011;53653;52.188;8.602;2024-02-26T11:15:09;7.65;;;3.75;;
66739;SDS011;53653;52.188;8.602;2024-02-26T11:17:35;7.15;;;2.95;;
66739;SDS011;53653;52.188;8.602;2024-02-26T11:20:10;8.65;;;4.72;;
66739;SDS011;53653;52.188;8.602;2024-02-26T11:22:37;10.02;;;3.50;;
66739;SDS011;53653;52.188;8.602;2024-02-26T11:25:06;7.83;;;3.50;;
66739;SDS011;53653;52.188;8.602;2024-02-26T11:27:55;8.25;;;3.45;;
66739;SDS011;53653;52.188;8.602;2024-02-26T11:30:26;8.57;;;3.90;;
66739;SDS011;53653;52.188;8.602;2024-02-26T11:32:56;9.30;;;3.65;;
66739;SDS011;53653;52.188;8.602;2024-02-26T11:35:22;8.70;;;3.30;;
66739;SDS011;53653;52.188;8.602;2024-02-26T11:37:58;7.70;;;3.28;;
66739;SDS011;53653;52.188;8.602;2024-02-26T11:40:26;8.27;;;3.28;;
66739;SDS011;53653;52.188;8.602;2024-02-26T11:42:52;6.00;;;2.60;;
66739;SDS011;53653;52.188;8.602;2024-02-26T11:48:14;7.63;;;3.22;;
66739;SDS011;53653;52.188;8.602;2024-02-26T11:53:28;6.77;;;2.93;;
66739;SDS011;53653;52.188;8.602;2024-02-26T11:59:01;5.93;;;2.65;;
66739;SDS011;53653;52.188;8.602;2024-02-26T12:01:49;8.07;;;3.10;;
66739;SDS011;53653;52.188;8.602;2024-02-26T12:04:19;6.15;;;2.75;;
66739;SDS011;53653;52.188;8.602;2024-02-26T12:06:48;5.75;;;2.13;;
66739;SDS011;53653;52.188;8.602;2024-02-26T12:12:06;6.70;;;2.88;;
66739;SDS011;53653;52.188;8.602;2024-02-26T12:14:52;6.57;;;2.70;;
66739;SDS011;53653;52.188;8.602;2024-02-26T12:17:22;6.03;;;2.63;;
66739;SDS011;53653;52.188;8.602;2024-02-26T12:19:48;6.65;;;2.60;;
66739;SDS011;53653;52.188;8.602;2024-02-26T12:22:15;8.07;;;2.92;;
66739;SDS011;53653;52.188;8.602;2024-02-26T12:24:41;6.18;;;2.28;;
66739;SDS011;53653;52.188;8.602;2024-02-26T12:27:29;7.30;;;2.63;;
66739;SDS011;53653;52.188;8.602;2024-02-26T12:29:54;6.97;;;2.38;;
66739;SDS011;53653;52.188;8.602;2024-02-26T12:32:19;6.93;;;2.63;;
66739;SDS011;53653;52.188;8.602;2024-02-26T12:34:45;6.67;;;2.70;;
66739;SDS011;53653;52.188;8.602;2024-02-26T12:37:11;6.55;;;2.55;;
66739;SDS011;53653;52.188;8.602;2024-02-26T12:39:37;8.20;;;3.00;;
66739;SDS011;53653;52.188;8.602;2024-02-26T12:42:03;5.78;;;2.13;;
66739;SDS011;53653;52.188;8.602;2024-02-26T12:44:29;5.32;;;1.95;;
66739;SDS011;53653;52.188;8.602;2024-02-26T12:47:02;8.25;;;3.30;;
66739;SDS011;53653;52.188;8.602;2024-02-26T12:49:28;5.67;;;2.03;;
66739;SDS011;53653;52.188;8.602;2024-02-26T12:51:54;8.02;;;2.13;;
66739;SDS011;53653;52.188;8.602;2024-02-26T12:54:26;10.90;;;3.22;;
66739;SDS011;53653;52.188;8.602;2024-02-26T12:56:53;6.53;;;2.23;;
66739;SDS011;53653;52.188;8.602;2024-02-26T12:59:19;7.38;;;2.65;;
66739;SDS011;53653;52.188;8.602;2024-02-26T13:01:45;9.13;;;3.40;;
66739;SDS011;53653;52.188;8.602;2024-02-26T13:04:10;6.50;;;2.33;;
66739;SDS011;53653;52.188;8.602;2024-02-26T13:06:43;6.63;;;2.97;;
66739;SDS011;53653;52.188;8.602;2024-02-26T13:09:30;6.65;;;2.85;;
66739;SDS011;53653;52.188;8.602;2024-02-26T13:11:57;5.75;;;2.10;;
66739;SDS011;53653;52.188;8.602;2024-02-26T13:14:24;7.90;;;2.30;;
66739;SDS011;53653;52.188;8.602;2024-02-26T13:16:56;9.00;;;2.33;;
66739;SDS011;53653;52.188;8.602;2024-02-26T13:19:22;7.00;;;2.90;;
66739;SDS011;53653;52.188;8.602;2024-02-26T13:21:48;6.80;;;2.53;;
66739;SDS011;53653;52.188;8.602;2024-02-26T13:24:13;5.45;;;2.08;;
66739;SDS011;53653;52.188;8.602;2024-02-26T13:26:39;5.70;;;2.23;;
66739;SDS011;53653;52.188;8.602;2024-02-26T13:29:04;8.70;;;3.30;;
66739;SDS011;53653;52.188;8.602;2024-02-26T13:31:30;5.75;;;2.60;;
66739;SDS011;53653;52.188;8.602;2024-02-26T13:33:56;8.70;;;3.03;;
66739;SDS011;53653;52.188;8.602;2024-02-26T13:36:22;6.27;;;2.83;;
66739;SDS011;53653;52.188;8.602;2024-02-26T13:38:51;6.05;;;2.42;;
66739;SDS011;53653;52.188;8.602;2024-02-26T13:41:18;7.88;;;3.10;;
66739;SDS011;53653;52.188;8.602;2024-02-26T13:43:43;6.30;;;2.63;;
66739;SDS011;53653;52.188;8.602;2024-02-26T13:46:09;7.45;;;2.90;;
66739;SDS011;53653;52.188;8.602;2024-02-26T13:48:36;6.82;;;2.33;;
66739;SDS011;53653;52.188;8.602;2024-02-26T13:51:01;6.13;;;2.23;;
66739;SDS011;53653;52.188;8.602;2024-02-26T13:53:27;7.47;;;2.27;;
66739;SDS011;53653;52.188;8.602;2024-02-26T13:55:52;7.33;;;3.10;;
66739;SDS011;53653;52.188;8.602;2024-02-26T13:58:18;5.45;;;1.95;;
66739;SDS011;53653;52.188;8.602;2024-02-26T14:00:48;6.03;;;1.95;;
66739;SDS011;53653;52.188;8.602;2024-02-26T14:03:13;6.87;;;2.40;;
66739;SDS011;53653;52.188;8.602;2024-02-26T14:05:38;7.63;;;2.50;;
66739;SDS011;53653;52.188;8.602;2024-02-26T14:08:04;7.38;;;2.40;;
66739;SDS011;53653;52.188;8.602;2024-02-26T14:10:30;7.17;;;3.07;;
66739;SDS011;53653;52.188;8.602;2024-02-26T14:12:56;6.40;;;2.08;;
66739;SDS011;53653;52.188;8.602;2024-02-26T14:15:23;5.95;;;1.92;;
66739;SDS011;53653;52.188;8.602;2024-02-26T14:17:50;9.75;;;3.05;;
66739;SDS011;53653;52.188;8.602;2024-02-26T14:20:20;4.87;;;1.70;;
66739;SDS011;53653;52.188;8.602;2024-02-26T14:22:46;5.10;;;2.13;;
66739;SDS011;53653;52.188;8.602;2024-02-26T14:25:11;7.27;;;2.70;;
66739;SDS011;53653;52.188;8.602;2024-02-26T14:27:37;7.90;;;2.70;;
66739;SDS011;53653;52.188;8.602;2024-02-26T14:30:02;7.40;;;2.63;;
66739;SDS011;53653;52.188;8.602;2024-02-26T14:32:28;9.43;;;3.55;;
66739;SDS011;53653;52.188;8.602;2024-02-26T14:34:56;8.73;;;2.93;;
66739;SDS011;53653;52.188;8.602;2024-02-26T14:37:21;8.70;;;3.53;;
66739;SDS011;53653;52.188;8.602;2024-02-26T14:39:47;8.00;;;3.43;;
66739;SDS011;53653;52.188;8.602;2024-02-26T14:42:13;7.75;;;3.28;;
66739;SDS011;53653;52.188;8.602;2024-02-26T14:44:42;7.35;;;2.85;;
66739;SDS011;53653;52.188;8.602;2024-02-26T14:47:08;6.17;;;2.20;;
66739;SDS011;53653;52.188;8.602;2024-02-26T14:49:33;6.93;;;2.47;;
66739;SDS011;53653;52.188;8.602;2024-02-26T14:51:59;6.37;;;2.00;;